PHOENIX SKY HARBOR INTL

KPHX (PHX)
Phoenix, Arizona
Towered

Vatsim Metar:
KPHX 250951Z 14003KT 10SM CLR 28/01 A2974 RMK AO2 SLP049 T02780011

No ATC Online

Traffic

Inbound:
None
Outbound:
Ident
Type
Name
Destination
Phase
BAW38P
B744
Adam Shellard EGHI
EGLL
Climb